sensor_id;sensor_type;location;lat;lon;timestamp;P1;durP1;ratioP1;P2;durP2;ratioP2
1004;SDS011;491;53.480;10.174;2023-05-07T00:00:25;8.83;;;6.00;;
1004;SDS011;491;53.480;10.174;2023-05-07T00:02:57;7.60;;;5.90;;
1004;SDS011;491;53.480;10.174;2023-05-07T00:05:23;8.40;;;5.17;;
1004;SDS011;491;53.480;10.174;2023-05-07T00:07:49;8.53;;;5.20;;
1004;SDS011;491;53.480;10.174;2023-05-07T00:10:17;6.13;;;5.00;;
1004;SDS011;491;53.480;10.174;2023-05-07T00:12:43;6.63;;;4.00;;
1004;SDS011;491;53.480;10.174;2023-05-07T00:15:09;8.20;;;6.03;;
1004;SDS011;491;53.480;10.174;2023-05-07T00:17:35;15.13;;;6.63;;
1004;SDS011;491;53.480;10.174;2023-05-07T00:20:01;8.67;;;5.80;;
1004;SDS011;491;53.480;10.174;2023-05-07T00:22:28;8.87;;;5.30;;
1004;SDS011;491;53.480;10.174;2023-05-07T00:24:55;5.60;;;3.70;;
1004;SDS011;491;53.480;10.174;2023-05-07T00:27:21;7.00;;;5.23;;
1004;SDS011;491;53.480;10.174;2023-05-07T00:29:47;6.43;;;3.97;;
1004;SDS011;491;53.480;10.174;2023-05-07T00:32:13;5.43;;;4.50;;
1004;SDS011;491;53.480;10.174;2023-05-07T00:34:39;9.30;;;5.40;;
1004;SDS011;491;53.480;10.174;2023-05-07T00:37:05;6.80;;;4.00;;
1004;SDS011;491;53.480;10.174;2023-05-07T00:39:32;6.47;;;5.37;;
1004;SDS011;491;53.480;10.174;2023-05-07T00:41:58;5.90;;;4.00;;
1004;SDS011;491;53.480;10.174;2023-05-07T00:44:25;8.10;;;5.23;;
1004;SDS011;491;53.480;10.174;2023-05-07T00:46:51;7.50;;;5.13;;
1004;SDS011;491;53.480;10.174;2023-05-07T00:49:17;6.13;;;4.30;;
1004;SDS011;491;53.480;10.174;2023-05-07T00:51:43;5.07;;;3.57;;
1004;SDS011;491;53.480;10.174;2023-05-07T00:54:10;7.77;;;4.33;;
1004;SDS011;491;53.480;10.174;2023-05-07T00:56:36;6.43;;;4.93;;
1004;SDS011;491;53.480;10.174;2023-05-07T00:59:02;6.80;;;4.27;;
1004;SDS011;491;53.480;10.174;2023-05-07T01:01:29;5.30;;;3.97;;
1004;SDS011;491;53.480;10.174;2023-05-07T01:03:54;4.80;;;3.30;;
1004;SDS011;491;53.480;10.174;2023-05-07T01:06:21;8.57;;;4.93;;
1004;SDS011;491;53.480;10.174;2023-05-07T01:08:48;5.90;;;4.90;;
1004;SDS011;491;53.480;10.174;2023-05-07T01:11:15;10.50;;;5.23;;
1004;SDS011;491;53.480;10.174;2023-05-07T01:13:42;6.50;;;4.07;;
1004;SDS011;491;53.480;10.174;2023-05-07T01:16:08;7.03;;;5.17;;
1004;SDS011;491;53.480;10.174;2023-05-07T01:18:35;6.20;;;3.90;;
1004;SDS011;491;53.480;10.174;2023-05-07T01:21:01;5.13;;;3.63;;
1004;SDS011;491;53.480;10.174;2023-05-07T01:23:30;6.40;;;4.33;;
1004;SDS011;491;53.480;10.174;2023-05-07T01:25:56;4.63;;;3.03;;
1004;SDS011;491;53.480;10.174;2023-05-07T01:28:22;5.00;;;3.70;;
1004;SDS011;491;53.480;10.174;2023-05-07T01:30:54;6.17;;;4.07;;
1004;SDS011;491;53.480;10.174;2023-05-07T01:33:22;5.50;;;3.40;;
1004;SDS011;491;53.480;10.174;2023-05-07T01:35:55;4.50;;;2.90;;
1004;SDS011;491;53.480;10.174;2023-05-07T01:38:22;6.20;;;3.37;;
1004;SDS011;491;53.480;10.174;2023-05-07T01:40:48;5.30;;;3.80;;
1004;SDS011;491;53.480;10.174;2023-05-07T01:43:14;4.53;;;3.63;;
1004;SDS011;491;53.480;10.174;2023-05-07T01:45:40;5.07;;;4.03;;
1004;SDS011;491;53.480;10.174;2023-05-07T01:48:07;6.20;;;4.20;;
1004;SDS011;491;53.480;10.174;2023-05-07T01:50:33;4.80;;;3.47;;
1004;SDS011;491;53.480;10.174;2023-05-07T01:52:59;8.83;;;4.30;;
1004;SDS011;491;53.480;10.174;2023-05-07T01:55:27;5.40;;;3.03;;
1004;SDS011;491;53.480;10.174;2023-05-07T01:57:53;5.27;;;4.33;;
1004;SDS011;491;53.480;10.174;2023-05-07T02:00:19;5.60;;;4.23;;
1004;SDS011;491;53.480;10.174;2023-05-07T02:02:45;6.73;;;5.20;;
1004;SDS011;491;53.480;10.174;2023-05-07T02:05:11;6.37;;;4.60;;
1004;SDS011;491;53.480;10.174;2023-05-07T02:07:37;4.83;;;3.37;;
1004;SDS011;491;53.480;10.174;2023-05-07T02:10:03;6.43;;;4.37;;
1004;SDS011;491;53.480;10.174;2023-05-07T02:12:30;5.43;;;4.00;;
1004;SDS011;491;53.480;10.174;2023-05-07T02:14:55;6.57;;;4.97;;
1004;SDS011;491;53.480;10.174;2023-05-07T02:17:21;8.10;;;5.17;;
1004;SDS011;491;53.480;10.174;2023-05-07T02:19:47;7.60;;;3.80;;
1004;SDS011;491;53.480;10.174;2023-05-07T02:22:13;5.10;;;3.90;;
1004;SDS011;491;53.480;10.174;2023-05-07T02:24:39;6.60;;;3.60;;
1004;SDS011;491;53.480;10.174;2023-05-07T02:27:05;7.30;;;4.83;;
1004;SDS011;491;53.480;10.174;2023-05-07T02:29:31;5.87;;;3.80;;
1004;SDS011;491;53.480;10.174;2023-05-07T02:31:57;5.07;;;3.80;;
1004;SDS011;491;53.480;10.174;2023-05-07T02:34:23;4.97;;;3.43;;
1004;SDS011;491;53.480;10.174;2023-05-07T02:36:49;6.53;;;3.93;;
1004;SDS011;491;53.480;10.174;2023-05-07T02:39:14;7.10;;;3.90;;
1004;SDS011;491;53.480;10.174;2023-05-07T02:41:41;5.13;;;3.47;;
1004;SDS011;491;53.480;10.174;2023-05-07T02:44:07;6.37;;;4.13;;
1004;SDS011;491;53.480;10.174;2023-05-07T02:46:33;6.50;;;4.70;;
1004;SDS011;491;53.480;10.174;2023-05-07T02:48:59;5.10;;;3.77;;
1004;SDS011;491;53.480;10.174;2023-05-07T02:51:25;7.60;;;4.40;;
1004;SDS011;491;53.480;10.174;2023-05-07T02:53:52;5.97;;;5.20;;
1004;SDS011;491;53.480;10.174;2023-05-07T02:56:18;7.20;;;4.90;;
1004;SDS011;491;53.480;10.174;2023-05-07T02:58:43;7.20;;;5.07;;
1004;SDS011;491;53.480;10.174;2023-05-07T03:01:09;6.03;;;4.43;;
1004;SDS011;491;53.480;10.174;2023-05-07T03:03:36;6.03;;;4.30;;
1004;SDS011;491;53.480;10.174;2023-05-07T03:06:02;6.53;;;4.70;;
1004;SDS011;491;53.480;10.174;2023-05-07T03:08:28;7.63;;;4.10;;
1004;SDS011;491;53.480;10.174;2023-05-07T03:10:54;7.20;;;4.30;;
1004;SDS011;491;53.480;10.174;2023-05-07T03:13:20;6.33;;;4.60;;
1004;SDS011;491;53.480;10.174;2023-05-07T03:15:46;6.97;;;4.87;;
1004;SDS011;491;53.480;10.174;2023-05-07T03:18:12;4.53;;;2.97;;
1004;SDS011;491;53.480;10.174;2023-05-07T03:20:37;4.90;;;3.80;;
1004;SDS011;491;53.480;10.174;2023-05-07T03:23:03;7.30;;;4.13;;
1004;SDS011;491;53.480;10.174;2023-05-07T03:25:29;5.40;;;4.40;;
1004;SDS011;491;53.480;10.174;2023-05-07T03:27:56;8.80;;;4.80;;
1004;SDS011;491;53.480;10.174;2023-05-07T03:30:22;6.10;;;4.80;;
1004;SDS011;491;53.480;10.174;2023-05-07T03:32:48;6.57;;;4.10;;
1004;SDS011;491;53.480;10.174;2023-05-07T03:35:13;7.07;;;4.10;;
1004;SDS011;491;53.480;10.174;2023-05-07T03:37:40;7.37;;;4.17;;
1004;SDS011;491;53.480;10.174;2023-05-07T03:40:06;9.37;;;5.90;;
1004;SDS011;491;53.480;10.174;2023-05-07T03:42:33;6.43;;;4.90;;
1004;SDS011;491;53.480;10.174;2023-05-07T03:44:58;8.07;;;5.07;;
1004;SDS011;491;53.480;10.174;2023-05-07T03:47:24;6.20;;;4.00;;
1004;SDS011;491;53.480;10.174;2023-05-07T03:49:50;7.90;;;5.30;;
1004;SDS011;491;53.480;10.174;2023-05-07T03:52:17;8.60;;;5.43;;
1004;SDS011;491;53.480;10.174;2023-05-07T03:54:48;6.63;;;4.67;;
1004;SDS011;491;53.480;10.174;2023-05-07T03:57:14;6.00;;;4.53;;
1004;SDS011;491;53.480;10.174;2023-05-07T03:59:40;7.77;;;4.40;;
1004;SDS011;491;53.480;10.174;2023-05-07T04:02:06;7.70;;;5.20;;
1004;SDS011;491;53.480;10.174;2023-05-07T04:04:32;5.00;;;4.40;;
1004;SDS011;491;53.480;10.174;2023-05-07T04:06:58;5.27;;;4.50;;
1004;SDS011;491;53.480;10.174;2023-05-07T04:09:25;7.70;;;4.60;;
1004;SDS011;491;53.480;10.174;2023-05-07T04:11:51;5.00;;;4.23;;
1004;SDS011;491;53.480;10.174;2023-05-07T04:14:17;6.00;;;3.90;;
1004;SDS011;491;53.480;10.174;2023-05-07T04:16:43;9.23;;;5.60;;
1004;SDS011;491;53.480;10.174;2023-05-07T04:19:08;6.37;;;4.97;;
1004;SDS011;491;53.480;10.174;2023-05-07T04:21:34;5.20;;;3.90;;
1004;SDS011;491;53.480;10.174;2023-05-07T04:24:02;6.40;;;5.10;;
1004;SDS011;491;53.480;10.174;2023-05-07T04:26:28;5.63;;;4.00;;
1004;SDS011;491;53.480;10.174;2023-05-07T04:28:54;5.57;;;3.87;;
1004;SDS011;491;53.480;10.174;2023-05-07T04:31:20;5.20;;;4.10;;
1004;SDS011;491;53.480;10.174;2023-05-07T04:33:46;7.07;;;3.87;;
1004;SDS011;491;53.480;10.174;2023-05-07T04:36:12;5.80;;;4.70;;
1004;SDS011;491;53.480;10.174;2023-05-07T04:38:38;6.23;;;4.27;;
1004;SDS011;491;53.480;10.174;2023-05-07T04:41:06;6.50;;;5.60;;
1004;SDS011;491;53.480;10.174;2023-05-07T04:43:32;6.03;;;3.50;;
1004;SDS011;491;53.480;10.174;2023-05-07T04:45:58;6.07;;;4.27;;
1004;SDS011;491;53.480;10.174;2023-05-07T04:48:24;5.83;;;4.10;;
1004;SDS011;491;53.480;10.174;2023-05-07T04:50:51;4.13;;;3.20;;
1004;SDS011;491;53.480;10.174;2023-05-07T04:53:17;7.40;;;4.93;;
1004;SDS011;491;53.480;10.174;2023-05-07T04:55:43;4.53;;;4.03;;
1004;SDS011;491;53.480;10.174;2023-05-07T04:58:10;5.60;;;4.07;;
1004;SDS011;491;53.480;10.174;2023-05-07T05:00:36;5.23;;;2.97;;
1004;SDS011;491;53.480;10.174;2023-05-07T05:03:01;5.00;;;2.90;;
1004;SDS011;491;53.480;10.174;2023-05-07T05:05:28;7.60;;;4.57;;
1004;SDS011;491;53.480;10.174;2023-05-07T05:07:55;5.57;;;3.90;;
1004;SDS011;491;53.480;10.174;2023-05-07T05:10:21;7.70;;;5.50;;
1004;SDS011;491;53.480;10.174;2023-05-07T05:12:47;4.40;;;3.30;;
1004;SDS011;491;53.480;10.174;2023-05-07T05:15:13;6.17;;;3.60;;
1004;SDS011;491;53.480;10.174;2023-05-07T05:17:39;9.27;;;4.57;;
1004;SDS011;491;53.480;10.174;2023-05-07T05:20:06;6.10;;;3.70;;
1004;SDS011;491;53.480;10.174;2023-05-07T05:22:32;7.10;;;4.53;;
1004;SDS011;491;53.480;10.174;2023-05-07T05:24:58;6.67;;;4.70;;
1004;SDS011;491;53.480;10.174;2023-05-07T05:27:24;4.73;;;3.83;;
1004;SDS011;491;53.480;10.174;2023-05-07T05:29:50;5.43;;;3.37;;
1004;SDS011;491;53.480;10.174;2023-05-07T05:32:16;6.20;;;4.53;;
1004;SDS011;491;53.480;10.174;2023-05-07T05:34:44;5.90;;;4.57;;
1004;SDS011;491;53.480;10.174;2023-05-07T05:37:10;5.60;;;4.03;;
1004;SDS011;491;53.480;10.174;2023-05-07T05:39:36;6.70;;;4.50;;
1004;SDS011;491;53.480;10.174;2023-05-07T05:42:02;5.30;;;4.33;;
1004;SDS011;491;53.480;10.174;2023-05-07T05:44:28;5.87;;;3.90;;
1004;SDS011;491;53.480;10.174;2023-05-07T05:46:54;3.67;;;2.63;;
1004;SDS011;491;53.480;10.174;2023-05-07T05:49:22;7.17;;;3.77;;
1004;SDS011;491;53.480;10.174;2023-05-07T05:51:48;6.07;;;4.63;;
1004;SDS011;491;53.480;10.174;2023-05-07T05:54:14;4.90;;;3.87;;
1004;SDS011;491;53.480;10.174;2023-05-07T05:56:40;4.40;;;2.97;;
1004;SDS011;491;53.480;10.174;2023-05-07T05:59:06;5.30;;;3.90;;
1004;SDS011;491;53.480;10.174;2023-05-07T06:01:32;6.77;;;4.10;;
1004;SDS011;491;53.480;10.174;2023-05-07T06:03:58;6.50;;;4.27;;
1004;SDS011;491;53.480;10.174;2023-05-07T06:06:24;5.70;;;4.40;;
1004;SDS011;491;53.480;10.174;2023-05-07T06:08:50;6.30;;;3.77;;
1004;SDS011;491;53.480;10.174;2023-05-07T06:11:16;7.17;;;5.00;;
1004;SDS011;491;53.480;10.174;2023-05-07T06:13:42;5.80;;;4.20;;
1004;SDS011;491;53.480;10.174;2023-05-07T06:16:08;6.93;;;3.87;;
1004;SDS011;491;53.480;10.174;2023-05-07T06:18:34;6.43;;;4.07;;
1004;SDS011;491;53.480;10.174;2023-05-07T06:21:03;5.43;;;2.87;;
1004;SDS011;491;53.480;10.174;2023-05-07T06:23:29;9.57;;;4.50;;
1004;SDS011;491;53.480;10.174;2023-05-07T06:26:04;5.00;;;3.43;;
1004;SDS011;491;53.480;10.174;2023-05-07T06:28:29;7.57;;;4.10;;
1004;SDS011;491;53.480;10.174;2023-05-07T06:31:10;5.80;;;4.30;;
1004;SDS011;491;53.480;10.174;2023-05-07T06:33:36;4.80;;;3.57;;
1004;SDS011;491;53.480;10.174;2023-05-07T06:36:02;5.60;;;4.23;;
1004;SDS011;491;53.480;10.174;2023-05-07T06:38:28;6.10;;;4.03;;
1004;SDS011;491;53.480;10.174;2023-05-07T06:40:54;9.40;;;3.37;;
1004;SDS011;491;53.480;10.174;2023-05-07T06:43:22;7.57;;;3.80;;
1004;SDS011;491;53.480;10.174;2023-05-07T06:45:47;5.73;;;4.10;;
1004;SDS011;491;53.480;10.174;2023-05-07T06:48:13;3.90;;;2.50;;
1004;SDS011;491;53.480;10.174;2023-05-07T06:50:39;5.60;;;3.33;;
1004;SDS011;491;53.480;10.174;2023-05-07T06:53:05;5.80;;;3.60;;
1004;SDS011;491;53.480;10.174;2023-05-07T06:55:31;4.73;;;2.90;;
1004;SDS011;491;53.480;10.174;2023-05-07T06:57:57;4.80;;;3.37;;
1004;SDS011;491;53.480;10.174;2023-05-07T07:00:25;5.23;;;3.80;;
1004;SDS011;491;53.480;10.174;2023-05-07T07:02:51;5.17;;;4.07;;
1004;SDS011;491;53.480;10.174;2023-05-07T07:05:17;5.57;;;3.57;;
1004;SDS011;491;53.480;10.174;2023-05-07T07:07:43;5.10;;;4.30;;
1004;SDS011;491;53.480;10.174;2023-05-07T07:10:09;4.93;;;3.50;;
1004;SDS011;491;53.480;10.174;2023-05-07T07:12:35;6.77;;;3.63;;
1004;SDS011;491;53.480;10.174;2023-05-07T07:15:01;4.97;;;3.00;;
1004;SDS011;491;53.480;10.174;2023-05-07T07:17:27;4.03;;;2.73;;
1004;SDS011;491;53.480;10.174;2023-05-07T07:19:53;2.43;;;1.80;;
1004;SDS011;491;53.480;10.174;2023-05-07T07:22:19;8.73;;;3.73;;
1004;SDS011;491;53.480;10.174;2023-05-07T07:24:45;5.40;;;2.77;;
1004;SDS011;491;53.480;10.174;2023-05-07T07:27:11;4.97;;;3.57;;
1004;SDS011;491;53.480;10.174;2023-05-07T07:29:37;9.13;;;4.60;;
1004;SDS011;491;53.480;10.174;2023-05-07T07:32:03;6.10;;;5.60;;
1004;SDS011;491;53.480;10.174;2023-05-07T07:34:29;5.43;;;3.77;;
1004;SDS011;491;53.480;10.174;2023-05-07T07:36:55;4.67;;;2.87;;
1004;SDS011;491;53.480;10.174;2023-05-07T07:39:21;4.50;;;3.17;;
1004;SDS011;491;53.480;10.174;2023-05-07T07:41:47;4.10;;;2.77;;
1004;SDS011;491;53.480;10.174;2023-05-07T07:44:13;3.50;;;2.60;;
1004;SDS011;491;53.480;10.174;2023-05-07T07:46:38;4.67;;;3.23;;
1004;SDS011;491;53.480;10.174;2023-05-07T07:49:05;4.13;;;3.00;;
1004;SDS011;491;53.480;10.174;2023-05-07T07:51:30;3.70;;;2.70;;
1004;SDS011;491;53.480;10.174;2023-05-07T07:53:56;3.80;;;3.00;;
1004;SDS011;491;53.480;10.174;2023-05-07T07:56:23;4.23;;;2.93;;
1004;SDS011;491;53.480;10.174;2023-05-07T07:58:49;4.33;;;3.23;;
1004;SDS011;491;53.480;10.174;2023-05-07T08:01:15;4.50;;;2.80;;
1004;SDS011;491;53.480;10.174;2023-05-07T08:03:41;3.40;;;3.03;;
1004;SDS011;491;53.480;10.174;2023-05-07T08:06:07;4.80;;;3.10;;
1004;SDS011;491;53.480;10.174;2023-05-07T08:08:33;4.47;;;2.97;;
1004;SDS011;491;53.480;10.174;2023-05-07T08:10:59;4.70;;;3.03;;
1004;SDS011;491;53.480;10.174;2023-05-07T08:13:25;3.70;;;2.80;;
1004;SDS011;491;53.480;10.174;2023-05-07T08:15:54;3.17;;;2.77;;
1004;SDS011;491;53.480;10.174;2023-05-07T08:18:20;3.50;;;3.10;;
1004;SDS011;491;53.480;10.174;2023-05-07T08:20:46;5.67;;;2.97;;
1004;SDS011;491;53.480;10.174;2023-05-07T08:23:12;4.83;;;3.00;;
1004;SDS011;491;53.480;10.174;2023-05-07T08:25:38;4.67;;;3.93;;
1004;SDS011;491;53.480;10.174;2023-05-07T08:28:05;4.50;;;3.60;;
1004;SDS011;491;53.480;10.174;2023-05-07T08:30:30;5.30;;;3.40;;
1004;SDS011;491;53.480;10.174;2023-05-07T08:32:56;4.17;;;3.40;;
1004;SDS011;491;53.480;10.174;2023-05-07T08:35:22;4.57;;;3.50;;
1004;SDS011;491;53.480;10.174;2023-05-07T08:37:48;3.47;;;3.00;;
1004;SDS011;491;53.480;10.174;2023-05-07T08:40:14;3.83;;;2.80;;
1004;SDS011;491;53.480;10.174;2023-05-07T08:42:40;5.37;;;3.67;;
1004;SDS011;491;53.480;10.174;2023-05-07T08:45:08;4.37;;;3.70;;
1004;SDS011;491;53.480;10.174;2023-05-07T08:47:46;3.50;;;2.73;;
1004;SDS011;491;53.480;10.174;2023-05-07T08:50:12;3.90;;;2.77;;
1004;SDS011;491;53.480;10.174;2023-05-07T08:52:47;4.67;;;3.47;;
1004;SDS011;491;53.480;10.174;2023-05-07T08:55:13;3.67;;;2.03;;
1004;SDS011;491;53.480;10.174;2023-05-07T08:57:40;5.90;;;3.10;;
1004;SDS011;491;53.480;10.174;2023-05-07T09:00:06;4.77;;;3.33;;
1004;SDS011;491;53.480;10.174;2023-05-07T09:02:34;4.20;;;2.73;;
1004;SDS011;491;53.480;10.174;2023-05-07T09:05:01;4.47;;;3.47;;
1004;SDS011;491;53.480;10.174;2023-05-07T09:07:27;5.50;;;2.30;;
1004;SDS011;491;53.480;10.174;2023-05-07T09:09:53;3.70;;;2.80;;
1004;SDS011;491;53.480;10.174;2023-05-07T09:12:22;3.17;;;2.20;;
1004;SDS011;491;53.480;10.174;2023-05-07T09:14:48;4.00;;;3.20;;
1004;SDS011;491;53.480;10.174;2023-05-07T09:17:17;4.13;;;2.80;;
1004;SDS011;491;53.480;10.174;2023-05-07T09:19:44;4.10;;;3.17;;
1004;SDS011;491;53.480;10.174;2023-05-07T09:22:13;3.03;;;2.23;;
1004;SDS011;491;53.480;10.174;2023-05-07T09:24:39;6.40;;;4.20;;
1004;SDS011;491;53.480;10.174;2023-05-07T09:27:05;4.20;;;2.13;;
1004;SDS011;491;53.480;10.174;2023-05-07T09:29:31;3.47;;;2.60;;
1004;SDS011;491;53.480;10.174;2023-05-07T09:32:01;4.50;;;2.87;;
1004;SDS011;491;53.480;10.174;2023-05-07T09:34:28;3.53;;;2.50;;
1004;SDS011;491;53.480;10.174;2023-05-07T09:37:01;4.93;;;2.27;;
1004;SDS011;491;53.480;10.174;2023-05-07T09:39:38;6.77;;;2.70;;
1004;SDS011;491;53.480;10.174;2023-05-07T09:42:04;3.80;;;2.77;;
1004;SDS011;491;53.480;10.174;2023-05-07T09:44:31;4.77;;;3.07;;
1004;SDS011;491;53.480;10.174;2023-05-07T09:46:57;5.90;;;3.80;;
1004;SDS011;491;53.480;10.174;2023-05-07T09:49:25;3.77;;;2.87;;
1004;SDS011;491;53.480;10.174;2023-05-07T09:51:54;3.10;;;2.80;;
1004;SDS011;491;53.480;10.174;2023-05-07T09:54:21;4.20;;;2.70;;
1004;SDS011;491;53.480;10.174;2023-05-07T09:56:51;5.67;;;2.87;;
1004;SDS011;491;53.480;10.174;2023-05-07T09:59:17;5.80;;;3.70;;
1004;SDS011;491;53.480;10.174;2023-05-07T10:01:44;4.63;;;3.20;;
1004;SDS011;491;53.480;10.174;2023-05-07T10:04:10;4.37;;;2.90;;
1004;SDS011;491;53.480;10.174;2023-05-07T10:06:37;4.40;;;2.50;;
1004;SDS011;491;53.480;10.174;2023-05-07T10:09:04;4.10;;;2.00;;
1004;SDS011;491;53.480;10.174;2023-05-07T10:11:33;4.17;;;2.23;;
1004;SDS011;491;53.480;10.174;2023-05-07T10:14:00;5.23;;;2.70;;
1004;SDS011;491;53.480;10.174;2023-05-07T10:16:27;5.23;;;2.80;;
1004;SDS011;491;53.480;10.174;2023-05-07T10:18:53;3.97;;;2.70;;
1004;SDS011;491;53.480;10.174;2023-05-07T10:21:20;4.17;;;2.37;;
1004;SDS011;491;53.480;10.174;2023-05-07T10:23:49;2.90;;;1.87;;
1004;SDS011;491;53.480;10.174;2023-05-07T10:26:15;2.80;;;2.53;;
1004;SDS011;491;53.480;10.174;2023-05-07T10:28:45;5.40;;;2.57;;
1004;SDS011;491;53.480;10.174;2023-05-07T10:33:51;3.93;;;3.50;;
1004;SDS011;491;53.480;10.174;2023-05-07T10:36:17;4.13;;;2.40;;
1004;SDS011;491;53.480;10.174;2023-05-07T10:38:44;3.17;;;2.57;;
1004;SDS011;491;53.480;10.174;2023-05-07T10:41:11;4.37;;;3.10;;
1004;SDS011;491;53.480;10.174;2023-05-07T10:43:40;4.33;;;2.50;;
1004;SDS011;491;53.480;10.174;2023-05-07T10:46:19;3.50;;;2.30;;
1004;SDS011;491;53.480;10.174;2023-05-07T10:51:27;2.97;;;2.60;;
1004;SDS011;491;53.480;10.174;2023-05-07T10:56:40;3.50;;;2.23;;
1004;SDS011;491;53.480;10.174;2023-05-07T11:01:49;4.83;;;3.53;;
1004;SDS011;491;53.480;10.174;2023-05-07T11:04:16;2.70;;;2.40;;
1004;SDS011;491;53.480;10.174;2023-05-07T11:07:09;2.70;;;2.17;;
1004;SDS011;491;53.480;10.174;2023-05-07T11:09:54;4.17;;;1.93;;
1004;SDS011;491;53.480;10.174;2023-05-07T11:15:09;3.83;;;2.13;;
1004;SDS011;491;53.480;10.174;2023-05-07T11:17:51;2.90;;;2.23;;
1004;SDS011;491;53.480;10.174;2023-05-07T11:20:18;2.20;;;1.80;;
1004;SDS011;491;53.480;10.174;2023-05-07T11:22:44;2.20;;;1.83;;
1004;SDS011;491;53.480;10.174;2023-05-07T11:25:10;2.37;;;1.80;;
1004;SDS011;491;53.480;10.174;2023-05-07T11:27:36;2.77;;;2.53;;
1004;SDS011;491;53.480;10.174;2023-05-07T11:30:02;2.10;;;1.23;;
1004;SDS011;491;53.480;10.174;2023-05-07T11:32:29;3.30;;;2.30;;
1004;SDS011;491;53.480;10.174;2023-05-07T11:34:56;2.23;;;1.60;;
1004;SDS011;491;53.480;10.174;2023-05-07T11:37:22;1.80;;;1.20;;
1004;SDS011;491;53.480;10.174;2023-05-07T11:39:49;4.87;;;2.20;;
1004;SDS011;491;53.480;10.174;2023-05-07T11:42:29;3.50;;;1.60;;
1004;SDS011;491;53.480;10.174;2023-05-07T11:44:55;3.70;;;2.50;;
1004;SDS011;491;53.480;10.174;2023-05-07T11:47:21;2.57;;;1.63;;
1004;SDS011;491;53.480;10.174;2023-05-07T11:49:53;3.57;;;1.80;;
1004;SDS011;491;53.480;10.174;2023-05-07T11:52:23;3.00;;;2.37;;
1004;SDS011;491;53.480;10.174;2023-05-07T11:54:53;3.10;;;1.60;;
1004;SDS011;491;53.480;10.174;2023-05-07T11:57:20;1.87;;;1.57;;
1004;SDS011;491;53.480;10.174;2023-05-07T11:59:46;1.90;;;1.00;;
1004;SDS011;491;53.480;10.174;2023-05-07T12:02:16;3.43;;;1.67;;
1004;SDS011;491;53.480;10.174;2023-05-07T12:04:43;2.93;;;1.70;;
1004;SDS011;491;53.480;10.174;2023-05-07T12:07:12;2.40;;;1.60;;
1004;SDS011;491;53.480;10.174;2023-05-07T12:09:39;3.90;;;2.00;;
1004;SDS011;491;53.480;10.174;2023-05-07T12:12:05;1.63;;;1.03;;
1004;SDS011;491;53.480;10.174;2023-05-07T12:14:31;1.70;;;0.90;;
1004;SDS011;491;53.480;10.174;2023-05-07T12:16:57;1.60;;;0.73;;
1004;SDS011;491;53.480;10.174;2023-05-07T12:19:23;1.67;;;1.07;;
1004;SDS011;491;53.480;10.174;2023-05-07T12:21:49;1.20;;;0.80;;
1004;SDS011;491;53.480;10.174;2023-05-07T12:24:15;1.40;;;0.90;;
1004;SDS011;491;53.480;10.174;2023-05-07T12:26:41;2.50;;;1.60;;
1004;SDS011;491;53.480;10.174;2023-05-07T12:29:09;2.60;;;1.47;;
1004;SDS011;491;53.480;10.174;2023-05-07T12:31:34;2.30;;;1.70;;
1004;SDS011;491;53.480;10.174;2023-05-07T12:34:00;2.90;;;1.60;;
1004;SDS011;491;53.480;10.174;2023-05-07T12:36:35;1.70;;;1.30;;
1004;SDS011;491;53.480;10.174;2023-05-07T12:39:03;1.63;;;1.40;;
1004;SDS011;491;53.480;10.174;2023-05-07T12:41:30;1.93;;;1.03;;
1004;SDS011;491;53.480;10.174;2023-05-07T12:43:56;1.10;;;0.97;;
1004;SDS011;491;53.480;10.174;2023-05-07T12:46:22;1.47;;;1.17;;
1004;SDS011;491;53.480;10.174;2023-05-07T12:48:48;2.30;;;1.03;;
1004;SDS011;491;53.480;10.174;2023-05-07T12:51:15;1.20;;;1.10;;
1004;SDS011;491;53.480;10.174;2023-05-07T12:53:41;1.40;;;0.70;;
1004;SDS011;491;53.480;10.174;2023-05-07T12:56:07;1.80;;;1.33;;
1004;SDS011;491;53.480;10.174;2023-05-07T12:58:34;2.23;;;0.97;;
1004;SDS011;491;53.480;10.174;2023-05-07T13:01:04;2.50;;;1.73;;
1004;SDS011;491;53.480;10.174;2023-05-07T13:03:31;1.47;;;0.70;;
1004;SDS011;491;53.480;10.174;2023-05-07T13:06:00;1.93;;;1.10;;
1004;SDS011;491;53.480;10.174;2023-05-07T13:08:27;1.33;;;1.20;;
1004;SDS011;491;53.480;10.174;2023-05-07T13:10:54;3.37;;;1.20;;
1004;SDS011;491;53.480;10.174;2023-05-07T13:13:20;1.47;;;1.37;;
1004;SDS011;491;53.480;10.174;2023-05-07T13:15:47;1.47;;;0.50;;
1004;SDS011;491;53.480;10.174;2023-05-07T13:18:13;2.27;;;1.10;;
1004;SDS011;491;53.480;10.174;2023-05-07T13:20:39;1.70;;;0.93;;
1004;SDS011;491;53.480;10.174;2023-05-07T13:23:08;1.70;;;1.03;;
1004;SDS011;491;53.480;10.174;2023-05-07T13:25:34;1.10;;;0.80;;
1004;SDS011;491;53.480;10.174;2023-05-07T13:28:00;1.47;;;1.00;;
1004;SDS011;491;53.480;10.174;2023-05-07T13:30:26;1.47;;;1.27;;
1004;SDS011;491;53.480;10.174;2023-05-07T13:32:54;1.37;;;0.77;;
1004;SDS011;491;53.480;10.174;2023-05-07T13:35:20;2.00;;;0.80;;
1004;SDS011;491;53.480;10.174;2023-05-07T13:37:46;1.43;;;0.60;;
1004;SDS011;491;53.480;10.174;2023-05-07T13:40:17;0.83;;;0.30;;
1004;SDS011;491;53.480;10.174;2023-05-07T13:42:44;1.13;;;0.97;;
1004;SDS011;491;53.480;10.174;2023-05-07T13:45:10;1.30;;;0.60;;
1004;SDS011;491;53.480;10.174;2023-05-07T13:47:39;1.40;;;1.00;;
1004;SDS011;491;53.480;10.174;2023-05-07T13:50:05;2.00;;;1.23;;
1004;SDS011;491;53.480;10.174;2023-05-07T13:52:31;1.00;;;0.70;;
1004;SDS011;491;53.480;10.174;2023-05-07T13:54:57;1.27;;;0.83;;
1004;SDS011;491;53.480;10.174;2023-05-07T13:57:29;1.97;;;1.80;;
1004;SDS011;491;53.480;10.174;2023-05-07T13:59:55;1.00;;;0.37;;
1004;SDS011;491;53.480;10.174;2023-05-07T14:02:21;1.40;;;0.70;;
1004;SDS011;491;53.480;10.174;2023-05-07T14:04:47;2.27;;;0.70;;
1004;SDS011;491;53.480;10.174;2023-05-07T14:07:13;1.00;;;0.63;;
1004;SDS011;491;53.480;10.174;2023-05-07T14:09:39;2.53;;;1.07;;
1004;SDS011;491;53.480;10.174;2023-05-07T14:12:05;1.90;;;1.40;;
1004;SDS011;491;53.480;10.174;2023-05-07T14:14:31;1.03;;;0.87;;
1004;SDS011;491;53.480;10.174;2023-05-07T14:16:57;1.17;;;0.77;;
1004;SDS011;491;53.480;10.174;2023-05-07T14:19:23;1.23;;;0.63;;
1004;SDS011;491;53.480;10.174;2023-05-07T14:21:49;1.50;;;1.23;;
1004;SDS011;491;53.480;10.174;2023-05-07T14:24:15;1.53;;;0.60;;
1004;SDS011;491;53.480;10.174;2023-05-07T14:26:41;1.40;;;0.80;;
1004;SDS011;491;53.480;10.174;2023-05-07T14:29:07;1.27;;;0.70;;
1004;SDS011;491;53.480;10.174;2023-05-07T14:31:33;1.33;;;0.50;;
1004;SDS011;491;53.480;10.174;2023-05-07T14:33:59;0.77;;;0.50;;
1004;SDS011;491;53.480;10.174;2023-05-07T14:36:25;0.90;;;0.50;;
1004;SDS011;491;53.480;10.174;2023-05-07T14:38:52;1.10;;;0.60;;
1004;SDS011;491;53.480;10.174;2023-05-07T14:41:19;1.27;;;0.60;;
1004;SDS011;491;53.480;10.174;2023-05-07T14:43:46;1.17;;;0.30;;
1004;SDS011;491;53.480;10.174;2023-05-07T14:46:15;1.23;;;0.90;;
1004;SDS011;491;53.480;10.174;2023-05-07T14:48:41;1.63;;;0.50;;
1004;SDS011;491;53.480;10.174;2023-05-07T14:51:10;1.10;;;0.73;;
1004;SDS011;491;53.480;10.174;2023-05-07T14:53:36;2.20;;;0.90;;
1004;SDS011;491;53.480;10.174;2023-05-07T14:56:11;1.50;;;0.27;;
1004;SDS011;491;53.480;10.174;2023-05-07T14:58:37;1.57;;;0.77;;
1004;SDS011;491;53.480;10.174;2023-05-07T15:01:06;1.60;;;1.40;;
1004;SDS011;491;53.480;10.174;2023-05-07T15:03:35;2.60;;;1.07;;
1004;SDS011;491;53.480;10.174;2023-05-07T15:06:01;2.00;;;1.60;;
1004;SDS011;491;53.480;10.174;2023-05-07T15:08:28;2.20;;;1.33;;
1004;SDS011;491;53.480;10.174;2023-05-07T15:10:56;1.80;;;0.80;;
1004;SDS011;491;53.480;10.174;2023-05-07T15:13:22;2.10;;;0.97;;
1004;SDS011;491;53.480;10.174;2023-05-07T15:15:48;2.10;;;0.60;;
1004;SDS011;491;53.480;10.174;2023-05-07T15:18:14;0.90;;;0.60;;
1004;SDS011;491;53.480;10.174;2023-05-07T15:20:43;0.90;;;0.67;;
1004;SDS011;491;53.480;10.174;2023-05-07T15:23:09;1.70;;;0.50;;
1004;SDS011;491;53.480;10.174;2023-05-07T15:25:37;1.03;;;0.47;;